Time;durP1;ratioP1;P1;durP2;ratioP2;P2;SDS_P1;SDS_P2;PMS_P1;PMS_P2;Temp;Humidity;BMP_temperature;BMP_pressure;BME280_temperature;BME280_humidity;BME280_pressure;Samples;Min_cycle;Max_cycle;Signal;HPM_P1;HPM_P2
2022/05/25 00:01:48;;;;;;;10.63;6.85;;;;;;;;;;5023828;28;20298;-59
2022/05/25 00:04:13;;;;;;;10.15;7.13;;;;;;;;;;5050000;28;20207;-60
2022/05/25 00:06:40;;;;;;;11.18;8.00;;;;;;;;;;5043151;28;20264;-59
2022/05/25 00:09:05;;;;;;;11.00;7.70;;;;;;;;;;5042264;28;20215;-60
2022/05/25 00:11:30;;;;;;;9.25;7.13;;;;;;;;;;5031011;28;20212;-59
2022/05/25 00:13:56;;;;;;;10.80;8.00;;;;;;;;;;5046080;28;20219;-59
2022/05/25 00:16:21;;;;;;;10.73;7.75;;;;;;;;;;5044565;28;20222;-60
2022/05/25 00:21:30;;;;;;;12.65;8.82;;;;;;;;;;5043734;28;20249;-59
2022/05/25 00:23:56;;;;;;;10.55;8.77;;;;;;;;;;5036548;28;20223;-59
2022/05/25 00:26:21;;;;;;;11.27;9.07;;;;;;;;;;5031769;28;20212;-59
2022/05/25 00:28:46;;;;;;;10.07;8.15;;;;;;;;;;5031240;28;20654;-59
2022/05/25 00:31:12;;;;;;;10.10;8.90;;;;;;;;;;5044783;28;20207;-59
2022/05/25 00:33:38;;;;;;;11.82;9.55;;;;;;;;;;5050473;28;20512;-59
2022/05/25 00:36:03;;;;;;;13.35;10.43;;;;;;;;;;5041483;28;20586;-59
2022/05/25 00:38:29;;;;;;;14.70;10.52;;;;;;;;;;5043859;28;20214;-59
2022/05/25 00:40:54;;;;;;;12.40;11.02;;;;;;;;;;5051053;28;20211;-59
2022/05/25 00:43:19;;;;;;;12.15;10.30;;;;;;;;;;5029281;28;20219;-59
2022/05/25 00:45:47;;;;;;;12.52;10.00;;;;;;;;;;5036342;28;20230;-59
2022/05/25 00:48:23;;;;;;;12.00;9.45;;;;;;;;;;5042238;28;20219;-59
2022/05/25 00:53:33;;;;;;;13.63;11.80;;;;;;;;;;5020240;28;20725;-60
2022/05/25 00:55:58;;;;;;;12.35;11.15;;;;;;;;;;5021689;28;20605;-60
2022/05/25 00:58:23;;;;;;;14.60;11.63;;;;;;;;;;5017416;28;20809;-60
2022/05/25 01:00:48;;;;;;;11.90;10.70;;;;;;;;;;5004234;28;20208;-60
2022/05/25 01:03:15;;;;;;;13.68;11.18;;;;;;;;;;5019134;28;20726;-60
2022/05/25 01:05:44;;;;;;;14.52;12.27;;;;;;;;;;5006068;28;20578;-60
2022/05/25 01:08:37;;;;;;;13.43;11.45;;;;;;;;;;4994933;28;20250;-60
2022/05/25 01:11:18;;;;;;;15.30;11.52;;;;;;;;;;5022179;28;20231;-60
2022/05/25 01:13:49;;;;;;;14.27;11.48;;;;;;;;;;5040264;28;20225;-60
2022/05/25 01:16:21;;;;;;;17.17;12.90;;;;;;;;;;5024403;28;20220;-60
2022/05/25 01:18:48;;;;;;;18.08;12.88;;;;;;;;;;5006638;28;20226;-60
2022/05/25 01:21:14;;;;;;;15.32;12.55;;;;;;;;;;5021408;28;20219;-60
2022/05/25 01:23:40;;;;;;;15.88;12.43;;;;;;;;;;5024547;28;20226;-60
2022/05/25 01:26:24;;;;;;;16.30;12.60;;;;;;;;;;5022651;28;20224;-59
2022/05/25 01:28:50;;;;;;;15.23;12.43;;;;;;;;;;5027053;28;20786;-60
2022/05/25 01:31:18;;;;;;;15.10;12.40;;;;;;;;;;5035918;28;20218;-60
2022/05/25 01:33:45;;;;;;;15.98;12.85;;;;;;;;;;5021305;28;20678;-60
2022/05/25 01:36:13;;;;;;;14.52;13.00;;;;;;;;;;5028060;28;20273;-60
2022/05/25 01:38:39;;;;;;;16.23;13.40;;;;;;;;;;5029707;28;20741;-60
2022/05/25 01:41:15;;;;;;;16.95;14.63;;;;;;;;;;5028802;28;20270;-60
2022/05/25 01:43:42;;;;;;;14.18;12.68;;;;;;;;;;5034946;28;20212;-59
2022/05/25 01:46:09;;;;;;;15.35;13.18;;;;;;;;;;5030154;28;20235;-60
2022/05/25 01:48:35;;;;;;;15.00;13.02;;;;;;;;;;5010638;28;20330;-59
2022/05/25 01:51:03;;;;;;;14.63;12.98;;;;;;;;;;5017801;28;20242;-60
2022/05/25 01:53:29;;;;;;;14.73;13.18;;;;;;;;;;5014881;28;20227;-60
2022/05/25 01:55:56;;;;;;;17.48;13.10;;;;;;;;;;5017890;28;20230;-60
2022/05/25 01:58:22;;;;;;;14.73;12.93;;;;;;;;;;5006479;28;20216;-60
2022/05/25 02:00:48;;;;;;;17.88;13.52;;;;;;;;;;5017652;28;20224;-59
2022/05/25 02:06:16;;;;;;;14.23;12.73;;;;;;;;;;5026195;28;20238;-60
2022/05/25 02:08:43;;;;;;;13.88;12.48;;;;;;;;;;5024169;28;20625;-60
2022/05/25 02:11:15;;;;;;;15.50;13.52;;;;;;;;;;5006789;28;20247;-60
2022/05/25 02:13:43;;;;;;;14.32;12.82;;;;;;;;;;5020040;28;20571;-59
2022/05/25 02:16:16;;;;;;;16.05;13.05;;;;;;;;;;5003503;28;20265;-60
2022/05/25 02:18:43;;;;;;;16.67;13.68;;;;;;;;;;5024687;28;20783;-59
2022/05/25 02:21:12;;;;;;;14.93;13.32;;;;;;;;;;5005923;28;20216;-59
2022/05/25 02:23:41;;;;;;;17.35;13.45;;;;;;;;;;5013601;28;20212;-60
2022/05/25 02:26:07;;;;;;;13.95;12.48;;;;;;;;;;5027368;28;20566;-60
2022/05/25 02:28:35;;;;;;;15.10;13.32;;;;;;;;;;5030063;28;20219;-60
2022/05/25 02:31:01;;;;;;;14.90;13.18;;;;;;;;;;5038042;28;20212;-60
2022/05/25 02:33:27;;;;;;;17.58;13.27;;;;;;;;;;5026099;28;20262;-60
2022/05/25 02:35:53;;;;;;;16.63;13.75;;;;;;;;;;5015403;28;20512;-60
2022/05/25 02:38:18;;;;;;;16.10;13.50;;;;;;;;;;5003488;28;20289;-59
2022/05/25 02:40:43;;;;;;;19.00;13.52;;;;;;;;;;5015825;28;20235;-60
2022/05/25 02:43:08;;;;;;;17.42;13.38;;;;;;;;;;5037756;28;20285;-59
2022/05/25 02:45:34;;;;;;;15.25;13.63;;;;;;;;;;5022811;28;20223;-59
2022/05/25 02:47:59;;;;;;;15.02;11.77;;;;;;;;;;5013473;28;20215;-59
2022/05/25 02:50:25;;;;;;;15.88;14.00;;;;;;;;;;5023140;28;20216;-60
2022/05/25 02:52:50;;;;;;;16.30;13.15;;;;;;;;;;5022326;28;20218;-60
2022/05/25 02:55:15;;;;;;;16.75;13.77;;;;;;;;;;5022726;28;20217;-60
2022/05/25 02:57:40;;;;;;;14.65;12.52;;;;;;;;;;5017945;28;20220;-60
2022/05/25 03:00:07;;;;;;;15.77;13.07;;;;;;;;;;5014697;28;20231;-59
2022/05/25 03:02:32;;;;;;;16.20;14.00;;;;;;;;;;5015317;28;20339;-59
2022/05/25 03:04:58;;;;;;;17.15;13.25;;;;;;;;;;5020652;28;20702;-59
2022/05/25 03:07:23;;;;;;;17.95;14.00;;;;;;;;;;5020257;28;20211;-59
2022/05/25 03:09:49;;;;;;;16.83;13.48;;;;;;;;;;5022980;28;20270;-59
2022/05/25 03:12:15;;;;;;;16.85;13.38;;;;;;;;;;5021898;28;20234;-59
2022/05/25 03:14:41;;;;;;;14.27;12.70;;;;;;;;;;5022821;28;20598;-59
2022/05/25 03:17:09;;;;;;;20.02;14.88;;;;;;;;;;5022983;28;20250;-59
2022/05/25 03:19:35;;;;;;;16.98;13.88;;;;;;;;;;5019157;28;20418;-59
2022/05/25 03:22:01;;;;;;;16.73;14.05;;;;;;;;;;5004405;28;20236;-59
2022/05/25 03:24:26;;;;;;;14.98;13.35;;;;;;;;;;5015083;28;20319;-59
2022/05/25 03:26:52;;;;;;;17.08;14.05;;;;;;;;;;5017485;28;20222;-59
2022/05/25 03:29:18;;;;;;;17.35;12.60;;;;;;;;;;5021925;28;20315;-59
2022/05/25 03:31:43;;;;;;;15.85;13.45;;;;;;;;;;5022932;28;20216;-59
2022/05/25 03:34:08;;;;;;;17.70;13.10;;;;;;;;;;5022132;28;20237;-59
2022/05/25 03:36:34;;;;;;;14.88;12.68;;;;;;;;;;5022088;28;20212;-59
2022/05/25 03:38:59;;;;;;;14.82;12.57;;;;;;;;;;5022818;28;20241;-59
2022/05/25 03:41:24;;;;;;;15.80;13.15;;;;;;;;;;5020490;28;20224;-60
2022/05/25 03:43:49;;;;;;;15.02;12.70;;;;;;;;;;5015367;28;20253;-59
2022/05/25 03:46:15;;;;;;;13.88;12.18;;;;;;;;;;5014061;28;20746;-59
2022/05/25 03:48:40;;;;;;;15.35;13.25;;;;;;;;;;5014191;28;20274;-59
2022/05/25 03:51:06;;;;;;;15.90;13.27;;;;;;;;;;5021207;28;20213;-59
2022/05/25 03:53:31;;;;;;;15.02;12.50;;;;;;;;;;5022251;28;20780;-59
2022/05/25 03:55:56;;;;;;;15.45;12.05;;;;;;;;;;5027589;28;20797;-60
2022/05/25 03:58:21;;;;;;;16.40;12.40;;;;;;;;;;5021557;28;20223;-60
2022/05/25 04:00:47;;;;;;;15.10;13.30;;;;;;;;;;5022230;28;20224;-60
2022/05/25 04:03:13;;;;;;;15.25;12.55;;;;;;;;;;5021576;28;20247;-60
2022/05/25 04:05:38;;;;;;;18.02;12.15;;;;;;;;;;5017768;28;20270;-59
2022/05/25 04:08:03;;;;;;;16.73;13.65;;;;;;;;;;5013798;28;20550;-60
2022/05/25 04:10:29;;;;;;;16.48;13.23;;;;;;;;;;5013463;28;20714;-59
2022/05/25 04:12:54;;;;;;;16.73;13.02;;;;;;;;;;5018664;28;20690;-59
2022/05/25 04:15:21;;;;;;;16.38;12.15;;;;;;;;;;5021685;28;20362;-59
2022/05/25 04:17:46;;;;;;;14.20;11.73;;;;;;;;;;5022443;28;20219;-59
2022/05/25 04:20:12;;;;;;;17.38;12.05;;;;;;;;;;5021274;28;20234;-59
2022/05/25 04:22:37;;;;;;;15.20;12.68;;;;;;;;;;5021506;28;20218;-59
2022/05/25 04:25:04;;;;;;;13.90;11.20;;;;;;;;;;5020858;28;20580;-60
2022/05/25 04:27:29;;;;;;;15.20;11.70;;;;;;;;;;5019107;28;20416;-59
2022/05/25 04:29:54;;;;;;;13.18;11.38;;;;;;;;;;5025850;28;20208;-59
2022/05/25 04:32:20;;;;;;;14.73;11.38;;;;;;;;;;5013191;28;20313;-60
2022/05/25 04:34:45;;;;;;;13.07;10.93;;;;;;;;;;5016182;28;20215;-59
2022/05/25 04:39:54;;;;;;;15.73;11.10;;;;;;;;;;5036204;28;20238;-59
2022/05/25 04:42:20;;;;;;;15.13;10.03;;;;;;;;;;5021396;28;20425;-59
2022/05/25 04:44:45;;;;;;;15.30;11.02;;;;;;;;;;5021495;28;20250;-60
2022/05/25 04:47:10;;;;;;;15.20;10.23;;;;;;;;;;5021425;28;20211;-60
2022/05/25 04:49:36;;;;;;;14.90;10.50;;;;;;;;;;5019913;28;20734;-59
2022/05/25 04:52:01;;;;;;;17.88;9.40;;;;;;;;;;5013251;28;20648;-59
2022/05/25 04:54:26;;;;;;;12.32;9.30;;;;;;;;;;5013552;28;20579;-59
2022/05/25 04:59:35;;;;;;;16.90;10.55;;;;;;;;;;5023595;28;20234;-59
2022/05/25 05:02:01;;;;;;;13.57;9.18;;;;;;;;;;5025424;28;20223;-60
2022/05/25 05:04:26;;;;;;;14.75;9.68;;;;;;;;;;5025151;28;20231;-59
2022/05/25 05:06:52;;;;;;;15.48;9.82;;;;;;;;;;5025003;28;20224;-59
2022/05/25 05:09:17;;;;;;;14.85;9.55;;;;;;;;;;5024861;28;20247;-62
2022/05/25 05:11:43;;;;;;;12.77;9.73;;;;;;;;;;5025187;28;20235;-65
2022/05/25 05:14:08;;;;;;;13.77;9.60;;;;;;;;;;5017380;28;20215;-60
2022/05/25 05:16:34;;;;;;;14.10;9.30;;;;;;;;;;5017464;28;20223;-61
2022/05/25 05:18:59;;;;;;;10.27;8.30;;;;;;;;;;5017009;28;20718;-59
2022/05/25 05:21:25;;;;;;;11.18;8.70;;;;;;;;;;5020140;28;20300;-59
2022/05/25 05:23:50;;;;;;;14.27;9.77;;;;;;;;;;5030818;28;20212;-59
2022/05/25 05:26:15;;;;;;;10.73;8.32;;;;;;;;;;5024517;28;20215;-60
2022/05/25 05:28:41;;;;;;;11.45;8.73;;;;;;;;;;5024909;28;20216;-60
2022/05/25 05:31:06;;;;;;;11.18;8.05;;;;;;;;;;5006637;28;20218;-61
2022/05/25 05:33:32;;;;;;;11.88;7.93;;;;;;;;;;5009317;28;20675;-60
2022/05/25 05:35:58;;;;;;;11.90;7.75;;;;;;;;;;5019840;28;20510;-60
2022/05/25 05:38:23;;;;;;;17.65;8.30;;;;;;;;;;5013060;28;20243;-60
2022/05/25 05:40:49;;;;;;;10.18;8.27;;;;;;;;;;4998200;28;20578;-60
2022/05/25 05:43:14;;;;;;;14.10;7.35;;;;;;;;;;5021080;28;20208;-60
2022/05/25 05:45:40;;;;;;;11.43;8.00;;;;;;;;;;5024871;28;20224;-60
2022/05/25 05:48:12;;;;;;;13.13;7.90;;;;;;;;;;5023583;28;20250;-61
2022/05/25 05:50:38;;;;;;;12.13;7.57;;;;;;;;;;5027219;28;20215;-61
2022/05/25 05:53:04;;;;;;;11.40;7.18;;;;;;;;;;5030964;28;20215;-61
2022/05/25 05:55:29;;;;;;;10.85;7.55;;;;;;;;;;5024104;28;20234;-60
2022/05/25 05:57:54;;;;;;;11.60;7.10;;;;;;;;;;5021954;28;20216;-60
2022/05/25 06:00:20;;;;;;;14.10;8.10;;;;;;;;;;5017097;28;20244;-60
2022/05/25 06:02:46;;;;;;;10.75;6.75;;;;;;;;;;5016325;28;20616;-60
2022/05/25 06:05:11;;;;;;;12.85;7.80;;;;;;;;;;5018260;28;20797;-61
2022/05/25 06:07:37;;;;;;;10.73;7.25;;;;;;;;;;5024425;28;20211;-60
2022/05/25 06:10:03;;;;;;;11.68;6.75;;;;;;;;;;5023014;28;20211;-61
2022/05/25 06:12:29;;;;;;;12.43;6.50;;;;;;;;;;5024644;28;20215;-61
2022/05/25 06:14:55;;;;;;;8.80;5.65;;;;;;;;;;5042977;28;20823;-60
2022/05/25 06:20:04;;;;;;;11.00;6.60;;;;;;;;;;5023329;28;20227;-60
2022/05/25 06:22:31;;;;;;;11.60;6.63;;;;;;;;;;5016451;28;20227;-61
2022/05/25 06:24:56;;;;;;;13.90;6.80;;;;;;;;;;5015456;28;20247;-61
2022/05/25 06:27:22;;;;;;;11.95;6.68;;;;;;;;;;5017537;28;20316;-62
2022/05/25 06:29:47;;;;;;;9.88;6.90;;;;;;;;;;5024786;28;20227;-61
2022/05/25 06:32:13;;;;;;;10.65;5.88;;;;;;;;;;5022705;28;20204;-61
2022/05/25 06:34:38;;;;;;;11.80;6.38;;;;;;;;;;5023550;28;20310;-60
2022/05/25 06:37:04;;;;;;;9.45;6.00;;;;;;;;;;5022729;28;20208;-61
2022/05/25 06:39:32;;;;;;;10.80;5.90;;;;;;;;;;5005168;28;20236;-61
2022/05/25 06:41:58;;;;;;;11.32;6.45;;;;;;;;;;5006053;28;20223;-60
2022/05/25 06:44:23;;;;;;;10.85;5.90;;;;;;;;;;5015634;28;20642;-60
2022/05/25 06:46:48;;;;;;;15.80;6.88;;;;;;;;;;5015744;28;20228;-63
2022/05/25 06:49:14;;;;;;;8.77;5.78;;;;;;;;;;5017784;28;20240;-61
2022/05/25 06:51:39;;;;;;;11.32;6.57;;;;;;;;;;5022305;28;20295;-61
2022/05/25 06:54:05;;;;;;;11.73;6.00;;;;;;;;;;5042225;28;20659;-63
2022/05/25 06:56:30;;;;;;;14.48;6.60;;;;;;;;;;5042956;28;20238;-62
2022/05/25 06:58:56;;;;;;;10.52;6.00;;;;;;;;;;5029036;28;20223;-61
2022/05/25 07:01:21;;;;;;;10.07;5.93;;;;;;;;;;5030310;28;20214;-63
2022/05/25 07:03:47;;;;;;;13.40;6.20;;;;;;;;;;5044380;28;20667;-62
2022/05/25 07:06:12;;;;;;;12.40;5.90;;;;;;;;;;5050846;28;20231;-62
2022/05/25 07:08:38;;;;;;;9.02;5.45;;;;;;;;;;5034981;28;20223;-62
2022/05/25 07:11:03;;;;;;;11.85;5.65;;;;;;;;;;5051856;28;20215;-62
2022/05/25 07:13:29;;;;;;;8.13;5.53;;;;;;;;;;5052253;28;20654;-63
2022/05/25 07:15:55;;;;;;;11.95;6.25;;;;;;;;;;5052563;28;20297;-62
2022/05/25 07:18:21;;;;;;;12.05;5.78;;;;;;;;;;5033763;28;20260;-62
2022/05/25 07:20:46;;;;;;;11.27;5.63;;;;;;;;;;5051619;28;20220;-63
2022/05/25 07:23:11;;;;;;;9.77;5.22;;;;;;;;;;5051255;28;20207;-62
2022/05/25 07:25:37;;;;;;;11.68;5.30;;;;;;;;;;5036233;28;20224;-62
2022/05/25 07:28:02;;;;;;;10.15;5.55;;;;;;;;;;5019887;28;20204;-63
2022/05/25 07:30:28;;;;;;;7.60;4.65;;;;;;;;;;4950971;28;21178;-62
2022/05/25 07:32:53;;;;;;;13.68;5.50;;;;;;;;;;4985057;28;20203;-61
2022/05/25 07:35:18;;;;;;;11.88;5.53;;;;;;;;;;4982246;28;20694;-62
2022/05/25 07:37:45;;;;;;;7.97;4.75;;;;;;;;;;4988587;28;20226;-62
2022/05/25 07:40:12;;;;;;;10.35;5.75;;;;;;;;;;4964653;28;20225;-61
2022/05/25 07:42:38;;;;;;;11.27;5.20;;;;;;;;;;4992415;28;20227;-62
2022/05/25 07:45:04;;;;;;;14.48;5.43;;;;;;;;;;5011473;28;20216;-62
2022/05/25 07:47:29;;;;;;;10.75;6.03;;;;;;;;;;5015501;28;20268;-62
2022/05/25 07:49:54;;;;;;;11.55;6.28;;;;;;;;;;5025399;28;20212;-62
2022/05/25 07:52:21;;;;;;;8.88;5.63;;;;;;;;;;5031203;28;20212;-62
2022/05/25 07:54:47;;;;;;;13.23;5.82;;;;;;;;;;5031341;28;20734;-62
2022/05/25 07:57:13;;;;;;;11.98;5.47;;;;;;;;;;5031373;28;20204;-62
2022/05/25 07:59:38;;;;;;;8.80;4.55;;;;;;;;;;5029878;28;20231;-62
2022/05/25 08:07:33;;;;;;;11.77;5.00;;;;;;;;;;5018780;28;20214;-61
2022/05/25 08:10:01;;;;;;;9.48;4.28;;;;;;;;;;5006824;28;20217;-62
2022/05/25 08:12:26;;;;;;;13.23;4.85;;;;;;;;;;5000355;28;20263;-62
2022/05/25 08:14:51;;;;;;;8.13;4.45;;;;;;;;;;5010041;28;20240;-62
2022/05/25 08:17:17;;;;;;;8.40;4.78;;;;;;;;;;5010894;28;20212;-62
2022/05/25 08:19:42;;;;;;;11.10;4.53;;;;;;;;;;5011566;28;20320;-62
2022/05/25 08:22:09;;;;;;;9.27;5.25;;;;;;;;;;5001676;28;20216;-62
2022/05/25 08:24:34;;;;;;;8.85;5.10;;;;;;;;;;5011000;28;20263;-62
2022/05/25 08:27:00;;;;;;;10.80;5.65;;;;;;;;;;4993562;28;20216;-62
2022/05/25 08:29:25;;;;;;;8.70;4.90;;;;;;;;;;4991353;28;20205;-62
2022/05/25 08:31:55;;;;;;;10.55;5.75;;;;;;;;;;4998434;28;20582;-63
2022/05/25 08:34:20;;;;;;;7.93;5.00;;;;;;;;;;5011028;28;20303;-62
2022/05/25 08:36:45;;;;;;;8.82;5.43;;;;;;;;;;5010574;28;20239;-62
2022/05/25 08:39:11;;;;;;;9.23;5.00;;;;;;;;;;5011121;28;20212;-62
2022/05/25 08:41:37;;;;;;;11.82;5.65;;;;;;;;;;5001151;28;20232;-62
2022/05/25 08:44:02;;;;;;;11.30;5.55;;;;;;;;;;5007935;28;20243;-62
2022/05/25 08:46:28;;;;;;;7.53;5.28;;;;;;;;;;5011443;28;20208;-62
2022/05/25 08:48:53;;;;;;;9.90;5.32;;;;;;;;;;5011231;28;20581;-62
2022/05/25 08:51:20;;;;;;;10.73;5.60;;;;;;;;;;5008748;28;20259;-62
2022/05/25 08:53:45;;;;;;;9.75;5.70;;;;;;;;;;4993230;28;20209;-62
2022/05/25 08:56:19;;;;;;;9.63;5.05;;;;;;;;;;4991287;28;20267;-62
2022/05/25 08:58:48;;;;;;;8.95;5.30;;;;;;;;;;5009942;28;20271;-62
2022/05/25 09:01:19;;;;;;;9.32;5.40;;;;;;;;;;5010839;28;20212;-62
2022/05/25 09:03:49;;;;;;;10.15;5.03;;;;;;;;;;4999982;28;20630;-62
2022/05/25 09:06:17;;;;;;;10.35;5.63;;;;;;;;;;4989475;28;20328;-62
2022/05/25 09:08:52;;;;;;;11.85;5.80;;;;;;;;;;5008394;28;20216;-62
2022/05/25 09:11:18;;;;;;;7.65;5.80;;;;;;;;;;5010363;28;20618;-62
2022/05/25 09:13:46;;;;;;;10.90;6.60;;;;;;;;;;5004204;28;20247;-62
2022/05/25 09:16:16;;;;;;;8.30;5.10;;;;;;;;;;4992346;28;20305;-62
2022/05/25 09:18:44;;;;;;;8.10;5.82;;;;;;;;;;4990406;28;20248;-63
2022/05/25 09:21:09;;;;;;;8.73;5.05;;;;;;;;;;5007015;28;20699;-62
2022/05/25 09:23:35;;;;;;;11.05;5.60;;;;;;;;;;5007252;28;20271;-62
2022/05/25 09:26:00;;;;;;;10.60;5.72;;;;;;;;;;5008847;28;20208;-61
2022/05/25 09:28:32;;;;;;;9.65;6.05;;;;;;;;;;5008587;28;20212;-62
2022/05/25 09:30:57;;;;;;;9.40;5.82;;;;;;;;;;5011142;28;20691;-62
2022/05/25 09:33:32;;;;;;;12.43;5.50;;;;;;;;;;4995851;28;20220;-62
2022/05/25 09:35:58;;;;;;;9.07;5.38;;;;;;;;;;5010864;28;20211;-61
2022/05/25 09:38:42;;;;;;;7.95;5.50;;;;;;;;;;4992731;28;20211;-62
2022/05/25 09:41:08;;;;;;;9.65;5.80;;;;;;;;;;5010133;28;20309;-62
2022/05/25 09:43:34;;;;;;;9.25;6.63;;;;;;;;;;5009470;28;20224;-61
2022/05/25 09:46:03;;;;;;;8.43;6.30;;;;;;;;;;5013592;28;20578;-61
2022/05/25 09:48:29;;;;;;;9.30;5.85;;;;;;;;;;5025264;28;20208;-61
2022/05/25 09:50:55;;;;;;;10.73;7.15;;;;;;;;;;5012788;28;20208;-62
2022/05/25 09:53:22;;;;;;;13.48;8.40;;;;;;;;;;5010042;28;20581;-62
2022/05/25 09:55:51;;;;;;;10.80;9.50;;;;;;;;;;5013905;28;20204;-61
2022/05/25 09:58:37;;;;;;;15.57;10.05;;;;;;;;;;4995403;28;20228;-61
2022/05/25 10:01:04;;;;;;;14.85;12.45;;;;;;;;;;4993340;28;20229;-63
2022/05/25 10:03:34;;;;;;;17.05;15.25;;;;;;;;;;4995574;28;20217;-62
2022/05/25 10:05:59;;;;;;;16.60;14.90;;;;;;;;;;5011252;28;20311;-61
2022/05/25 10:08:27;;;;;;;17.73;15.38;;;;;;;;;;5011885;28;20295;-62
2022/05/25 10:10:56;;;;;;;14.65;13.13;;;;;;;;;;5002873;28;20217;-61
2022/05/25 10:13:23;;;;;;;18.17;14.93;;;;;;;;;;5004727;28;20223;-62
2022/05/25 10:15:51;;;;;;;15.45;13.75;;;;;;;;;;5008191;28;20631;-61
2022/05/25 10:18:16;;;;;;;15.98;14.00;;;;;;;;;;5007848;28;20671;-62
2022/05/25 10:20:41;;;;;;;16.33;14.18;;;;;;;;;;5013516;28;20311;-62
2022/05/25 10:23:08;;;;;;;17.50;15.70;;;;;;;;;;5008882;28;20221;-61
2022/05/25 10:25:34;;;;;;;16.73;14.88;;;;;;;;;;5012848;28;20239;-62
2022/05/25 10:28:00;;;;;;;15.93;14.32;;;;;;;;;;5001660;28;20240;-62
2022/05/25 10:39:12;;;;;;;14.02;11.13;;;;;;;;;;5005839;28;20582;-61
2022/05/25 10:41:37;;;;;;;11.18;9.90;;;;;;;;;;5017304;28;20487;-61
2022/05/25 10:44:04;;;;;;;11.43;9.20;;;;;;;;;;5008346;28;20226;-61
2022/05/25 10:46:30;;;;;;;10.70;9.20;;;;;;;;;;5000227;28;20209;-61
2022/05/25 10:49:01;;;;;;;10.90;9.55;;;;;;;;;;5001353;28;20656;-61
2022/05/25 10:51:29;;;;;;;10.27;7.55;;;;;;;;;;5014536;28;20261;-62
2022/05/25 10:56:44;;;;;;;8.43;6.65;;;;;;;;;;5020146;28;20235;-61
2022/05/25 10:59:21;;;;;;;13.25;6.57;;;;;;;;;;4994199;28;20232;-61
2022/05/25 11:01:50;;;;;;;9.73;6.10;;;;;;;;;;4992286;28;20225;-61
2022/05/25 11:04:18;;;;;;;8.07;6.20;;;;;;;;;;5000186;28;20260;-61
2022/05/25 11:06:47;;;;;;;9.82;7.57;;;;;;;;;;5007076;28;20244;-61
2022/05/25 11:09:12;;;;;;;8.65;6.80;;;;;;;;;;4976418;28;20684;-62
2022/05/25 11:11:40;;;;;;;8.02;6.38;;;;;;;;;;4995014;28;20275;-62
2022/05/25 11:14:18;;;;;;;9.93;5.82;;;;;;;;;;4993431;28;20282;-61
2022/05/25 11:16:55;;;;;;;8.45;5.30;;;;;;;;;;5031112;28;20300;-61
2022/05/25 11:19:21;;;;;;;11.43;5.00;;;;;;;;;;5030386;28;20223;-61
2022/05/25 11:21:54;;;;;;;9.88;5.28;;;;;;;;;;5032752;28;20682;-61
2022/05/25 11:24:31;;;;;;;11.93;5.75;;;;;;;;;;5018212;28;20235;-63
2022/05/25 11:27:04;;;;;;;8.10;5.85;;;;;;;;;;5026073;28;20277;-62
2022/05/25 11:29:31;;;;;;;8.82;5.82;;;;;;;;;;5030590;28;20254;-62
2022/05/25 11:32:00;;;;;;;7.40;6.07;;;;;;;;;;5032411;28;20211;-62
2022/05/25 11:34:42;;;;;;;7.22;5.00;;;;;;;;;;5023141;28;20634;-62
2022/05/25 11:37:21;;;;;;;7.07;4.00;;;;;;;;;;5015421;28;20461;-62
2022/05/25 11:39:51;;;;;;;9.43;4.25;;;;;;;;;;5030602;28;20700;-61
2022/05/25 11:42:17;;;;;;;8.32;3.53;;;;;;;;;;5012632;28;20676;-62
2022/05/25 11:44:51;;;;;;;6.72;3.50;;;;;;;;;;5022257;28;20272;-62
2022/05/25 11:47:16;;;;;;;6.35;2.90;;;;;;;;;;5010481;28;20668;-62
2022/05/25 11:49:45;;;;;;;8.50;2.70;;;;;;;;;;5030593;28;20246;-62
2022/05/25 11:52:18;;;;;;;4.88;2.58;;;;;;;;;;5029783;28;20549;-62
2022/05/25 11:54:44;;;;;;;4.18;2.92;;;;;;;;;;5017255;28;20224;-62
2022/05/25 11:57:19;;;;;;;6.88;2.90;;;;;;;;;;5018351;28;20215;-61
2022/05/25 11:59:49;;;;;;;6.10;2.30;;;;;;;;;;5010552;28;20332;-62
2022/05/25 12:02:33;;;;;;;5.18;2.30;;;;;;;;;;5027695;28;20219;-62
2022/05/25 12:05:03;;;;;;;3.58;2.28;;;;;;;;;;5031216;28;20238;-62
2022/05/25 12:07:33;;;;;;;6.75;2.60;;;;;;;;;;5037430;28;20212;-61
2022/05/25 12:09:58;;;;;;;3.03;1.95;;;;;;;;;;5032814;28;20222;-62
2022/05/25 12:12:30;;;;;;;4.70;2.13;;;;;;;;;;5046104;28;20212;-61
2022/05/25 12:15:03;;;;;;;4.55;2.05;;;;;;;;;;5031115;28;20245;-61
2022/05/25 12:17:47;;;;;;;5.85;2.10;;;;;;;;;;5011205;28;20555;-61
2022/05/25 12:20:23;;;;;;;5.60;1.90;;;;;;;;;;5011121;28;20306;-61
2022/05/25 12:22:50;;;;;;;5.40;2.08;;;;;;;;;;4996087;28;20274;-61
2022/05/25 12:25:16;;;;;;;5.45;2.20;;;;;;;;;;5027066;28;20265;-62
2022/05/25 12:27:43;;;;;;;3.63;1.95;;;;;;;;;;5030923;28;20302;-61
2022/05/25 12:30:10;;;;;;;8.38;2.05;;;;;;;;;;5011258;28;20239;-62
2022/05/25 12:32:38;;;;;;;5.40;2.75;;;;;;;;;;5013367;28;20235;-62
2022/05/25 12:35:03;;;;;;;6.40;2.38;;;;;;;;;;5029681;28;20298;-62
2022/05/25 12:37:31;;;;;;;6.25;2.00;;;;;;;;;;4993747;28;20221;-62
2022/05/25 12:39:59;;;;;;;4.07;1.63;;;;;;;;;;5028782;28;20230;-61
2022/05/25 12:42:24;;;;;;;4.03;1.63;;;;;;;;;;5025101;28;20232;-62
2022/05/25 12:50:35;;;;;;;5.47;1.90;;;;;;;;;;5030379;28;20342;-73
2022/05/25 12:53:30;;;;;;;6.70;1.70;;;;;;;;;;5029608;28;20204;-68
2022/05/25 12:55:57;;;;;;;4.50;2.08;;;;;;;;;;5037944;28;20215;-71
2022/05/25 12:58:31;;;;;;;4.65;2.00;;;;;;;;;;5045800;28;20256;-73
2022/05/25 13:01:01;;;;;;;5.43;1.90;;;;;;;;;;5050557;28;20246;-70
2022/05/25 13:03:48;;;;;;;5.95;1.60;;;;;;;;;;5034418;28;20605;-72
2022/05/25 13:06:15;;;;;;;5.28;1.70;;;;;;;;;;5026846;28;20373;-72
2022/05/25 13:08:53;;;;;;;3.95;1.10;;;;;;;;;;5029112;28;20265;-73
2022/05/25 13:11:32;;;;;;;3.60;1.30;;;;;;;;;;5029512;28;20231;-73
2022/05/25 13:13:58;;;;;;;3.35;1.33;;;;;;;;;;5024551;28;20281;-72
2022/05/25 13:16:45;;;;;;;4.32;1.10;;;;;;;;;;5010526;28;20216;-72
2022/05/25 13:19:14;;;;;;;4.50;1.40;;;;;;;;;;5029632;28;20273;-68
2022/05/25 13:21:40;;;;;;;5.82;1.40;;;;;;;;;;5034620;28;20226;-72
2022/05/25 13:24:07;;;;;;;4.80;1.70;;;;;;;;;;5007828;28;20208;-71
2022/05/25 13:26:47;;;;;;;3.67;1.30;;;;;;;;;;5021822;28;20281;-68
2022/05/25 13:29:16;;;;;;;5.35;1.50;;;;;;;;;;5032854;28;20581;-71
2022/05/25 13:31:51;;;;;;;6.80;1.70;;;;;;;;;;5034553;28;20207;-72
2022/05/25 13:34:17;;;;;;;7.57;1.70;;;;;;;;;;5028967;28;20258;-71
2022/05/25 13:36:43;;;;;;;5.00;1.65;;;;;;;;;;5015229;28;20212;-72
2022/05/25 13:39:09;;;;;;;6.38;1.58;;;;;;;;;;5031568;28;20223;-71
2022/05/25 13:41:47;;;;;;;4.38;1.50;;;;;;;;;;5017035;28;20212;-70
2022/05/25 13:44:13;;;;;;;5.20;1.30;;;;;;;;;;5019186;28;20549;-70
2022/05/25 13:46:42;;;;;;;5.88;1.65;;;;;;;;;;5015833;28;20216;-71
2022/05/25 13:49:09;;;;;;;7.28;1.42;;;;;;;;;;5033658;28;20855;-71
2022/05/25 13:51:35;;;;;;;4.07;1.30;;;;;;;;;;5015128;28;20201;-74
2022/05/25 13:54:01;;;;;;;3.75;1.25;;;;;;;;;;5021223;28;20230;-67
2022/05/25 13:56:27;;;;;;;4.43;1.60;;;;;;;;;;5027351;28;20223;-74
2022/05/25 13:58:55;;;;;;;6.53;1.40;;;;;;;;;;5020427;28;20220;-72
2022/05/25 14:01:21;;;;;;;7.18;1.70;;;;;;;;;;5011967;28;20233;-71
2022/05/25 14:03:56;;;;;;;5.15;1.40;;;;;;;;;;5013882;28;20316;-71
2022/05/25 14:06:22;;;;;;;7.78;1.75;;;;;;;;;;5032919;28;20223;-72
2022/05/25 14:11:32;;;;;;;5.28;1.40;;;;;;;;;;5033136;28;20266;-74
2022/05/25 14:13:58;;;;;;;7.90;1.50;;;;;;;;;;5048428;28;20251;-72
2022/05/25 14:16:24;;;;;;;5.28;1.30;;;;;;;;;;5034556;28;20226;-73
2022/05/25 14:18:50;;;;;;;5.68;1.15;;;;;;;;;;5053171;28;20218;-70
2022/05/25 14:21:34;;;;;;;3.88;1.10;;;;;;;;;;5033875;28;20290;-70
2022/05/25 14:24:02;;;;;;;8.13;1.38;;;;;;;;;;5041599;28;20218;-70
2022/05/25 14:26:28;;;;;;;6.68;1.58;;;;;;;;;;5037752;28;20199;-73
2022/05/25 14:28:53;;;;;;;4.00;1.38;;;;;;;;;;5052125;28;20238;-71
2022/05/25 14:31:19;;;;;;;4.28;1.20;;;;;;;;;;5041527;28;20591;-73
2022/05/25 14:33:44;;;;;;;4.32;1.15;;;;;;;;;;5026116;28;20734;-74
2022/05/25 14:36:10;;;;;;;5.20;1.20;;;;;;;;;;5051247;28;20215;-67
2022/05/25 14:38:36;;;;;;;4.45;1.48;;;;;;;;;;5035048;28;20545;-68
2022/05/25 14:41:02;;;;;;;5.28;1.30;;;;;;;;;;5032070;28;20297;-67
2022/05/25 14:43:38;;;;;;;9.27;2.15;;;;;;;;;;5033770;28;20298;-70
2022/05/25 14:46:04;;;;;;;3.90;1.30;;;;;;;;;;5041138;28;20222;-71
2022/05/25 14:48:30;;;;;;;7.55;1.40;;;;;;;;;;5051174;28;20207;-62
2022/05/25 14:50:56;;;;;;;3.17;1.33;;;;;;;;;;5051776;28;20234;-63
2022/05/25 14:53:22;;;;;;;4.82;1.30;;;;;;;;;;5051597;28;20204;-62
2022/05/25 14:55:47;;;;;;;5.43;1.60;;;;;;;;;;5042620;28;20306;-62
2022/05/25 14:58:18;;;;;;;4.47;1.40;;;;;;;;;;5037431;28;20943;-62
2022/05/25 15:00:50;;;;;;;4.03;1.40;;;;;;;;;;5032039;28;20318;-63
2022/05/25 15:03:34;;;;;;;4.35;1.38;;;;;;;;;;5040820;28;20292;-63
2022/05/25 15:06:01;;;;;;;8.82;1.42;;;;;;;;;;5038689;28;20246;-62
2022/05/25 15:08:29;;;;;;;2.30;1.20;;;;;;;;;;5019754;28;20305;-64
2022/05/25 15:10:56;;;;;;;6.10;1.20;;;;;;;;;;5042659;28;20246;-62
2022/05/25 15:13:23;;;;;;;5.18;1.20;;;;;;;;;;5027941;28;20227;-62
2022/05/25 15:18:34;;;;;;;4.13;1.35;;;;;;;;;;5045609;28;20245;-61